Nearby METAR Reports

 

KSFB - Sanford/Orlando, Florida, USA
Distance from station: E 8mi, 12km
Updated: Thu 04/26/18 6:53pm EDT
Few Clouds
Few Clouds
 Wind from W
Wind: W 13 mph , 20 km/h
Temperature: 81°F , 27°C
Heat Index: 81°F , 27°C
Dew Point: 57°F , 14°C
Humidity: 45%
Barometer: 29.85 inHg , 1010.8 hPa
Clouds: Few Clouds
Visibility: 10 miles , 16 km
Cloud details: Few Clouds 6500 ft
2018/04/26 22:53 KSFB 262253Z 26011KT 10SM FEW065 27/14 A2985 RMK AO2 SLP106 T02670139
KORL - Orlando, Florida, USA
Distance from station: S 15mi, 24km
Updated: Thu 04/26/18 6:53pm EDT
Overcast
Overcast
 Wind from WNW
Wind: WNW 15 mph , 24 km/h
Temperature: 81°F , 27°C
Heat Index: 81°F , 27°C
Dew Point: 57°F , 14°C
Humidity: 45%
Barometer: 29.86 inHg , 1011.2 hPa
Clouds: Overcast
Visibility: 10 miles , 16 km
Cloud details: Overcast 6500 ft
2018/04/26 22:53 KORL 262253Z 29013KT 10SM OVC065 27/14 A2986 RMK AO2 SLP113 T02720139
 
KDED - Deland, Florida, USA
Distance from station: N 21mi, 34km
Updated: Thu 04/26/18 6:55pm EDT
Partly cloudy
Partly cloudy
 Wind from W
Wind: W 7 mph , 11 km/h
Temperature: 79°F , 26°C
Dew Point: 61°F , 16°C
Humidity: 54%
Barometer: 29.85 inHg , 1010.8 hPa
Clouds: Partly cloudy
Visibility: 10 miles , 16 km
Cloud details: Partly cloudy 6000 ft
2018/04/26 22:55 KDED 262255Z AUTO 27006KT 10SM SCT060 26/16 A2985 RMK AO2
KMCO - Orlando, Florida, USA
Distance from station: S 24mi, 39km
Updated: Thu 04/26/18 6:53pm EDT
Mostly cloudy
Mostly cloudy
 Wind from W
Wind: W 14 mph , 22 km/h
Temperature: 81°F , 27°C
Heat Index: 81°F , 27°C
Dew Point: 57°F , 14°C
Humidity: 45%
Barometer: 29.86 inHg , 1011.2 hPa
Clouds: Mostly cloudy
Visibility: 10 miles , 16 km
Cloud details: Few Clouds 6500 ft
Mostly cloudy 25000 ft
2018/04/26 22:53 KMCO 262253Z 27012KT 10SM FEW065 BKN250 27/14 A2986 RMK AO2 SLP109 T02720139
 
KLEE - Leesburg, Florida, USA
Distance from station: W 29mi, 47km
Updated: Thu 04/26/18 6:53pm EDT
Clear
Clear
 Wind from WSW
Wind: WSW 10 mph , 17 km/h, Gust: 21 mph , 33 km/h
Temperature: 75°F , 24°C
Dew Point: 59°F , 15°C
Humidity: 57%
Barometer: 29.89 inHg , 1012.2 hPa
Clouds: Clear
Visibility: 10 miles , 16 km
2018/04/26 22:53 KLEE 262253Z AUTO 25009G18KT 10SM CLR 24/15 A2989 RMK AO2 SLP119 T02390150
KEVB - New Smyrna Beach, Florida, USA
Distance from station: NE 31mi, 49km
Updated: Thu 04/26/18 6:47pm EDT
Partly cloudy
Partly cloudy
 Wind from SW
Wind: SW 8 mph , 13 km/h, Gust: 20 mph , 31 km/h
Temperature: 81°F , 27°C
Heat Index: 81°F , 27°C
Dew Point: 57°F , 14°C
Humidity: 45%
Barometer: 29.85 inHg , 1010.8 hPa
Clouds: Partly cloudy
Visibility: 10 miles , 16 km
Cloud details: Partly cloudy 5000 ft
2018/04/26 22:47 KEVB 262247Z 23007G17KT 10SM SCT050 27/14 A2985
 
KDAB - Daytona Beach, Florida, USA
Distance from station: NNE 33mi, 53km
Updated: Thu 04/26/18 6:53pm EDT
Partly cloudy
Partly cloudy
 Wind from SW
Wind: SW 9 mph , 15 km/h
Temperature: 79°F , 26°C
Dew Point: 61°F , 16°C
Humidity: 54%
Barometer: 29.84 inHg , 1010.5 hPa
Clouds: Partly cloudy
Visibility: 10 miles , 16 km
Cloud details: Few Clouds 6000 ft
Partly cloudy 20000 ft
2018/04/26 22:53 KDAB 262253Z 23008KT 10SM FEW060 SCT200 26/16 A2984 RMK AO2 SLP105 T02610161
KISM - Kissimmee/Orland, Florida, USA
Distance from station: S 34mi, 55km
Updated: Thu 04/26/18 6:56pm EDT
Mostly cloudy
Mostly cloudy
 Wind from WNW
Wind: WNW 15 mph , 24 km/h
Temperature: 81°F , 27°C
Heat Index: 81°F , 27°C
Dew Point: 57°F , 14°C
Humidity: 45%
Barometer: 29.87 inHg , 1011.5 hPa
Clouds: Mostly cloudy
Visibility: 10 miles , 16 km
Cloud details: Mostly cloudy 6000 ft
2018/04/26 22:56 KISM 262256Z 29013KT 10SM BKN060 27/14 A2987 RMK AO2 SLP118 T02670144
 
KTIX - Titusville, Florida, USA
Distance from station: ESE 38mi, 61km
Updated: Thu 04/26/18 5:50pm EDT
NOT Current
Partly cloudy
Partly cloudy
 Wind from WSW
Wind: WSW 9 mph , 15 km/h
Temperature: 84°F , 29°C
Dew Point: 55°F , 13°C
Humidity: 37%
Barometer: 29.86 inHg , 1011.2 hPa
Clouds: Partly cloudy
Visibility: 7 miles , 11 km
Cloud details: Partly cloudy 5000 ft
2018/04/26 21:50 KTIX 262150Z 24008KT 7SM SCT050 29/13 A2986
KOMN - Ormond Beach Vor, Florida, USA
Distance from station: NNE 39mi, 63km
Updated: Thu 04/26/18 6:50pm EDT
Partly cloudy
Partly cloudy
 Wind from WSW
Wind: WSW 7 mph , 11 km/h
Clouds: Partly cloudy
Visibility: 7 miles , 11 km
Cloud details: Partly cloudy 5500 ft
2018/04/26 22:50 KOMN 262250Z 24006KT 7SM SCT055 275/15 A2984 RMK LAST
 
KTTS - Nasa Shuttle Fcl, Florida, USA
Distance from station: ESE 39mi, 63km
Updated: Thu 04/26/18 6:56pm EDT
Clear
Clear
 Wind from SSE
Wind: SSE 7 mph , 11 km/h
Temperature: 75°F , 24°C
Dew Point: 64°F , 18°C
Humidity: 69%
Barometer: 29.85 inHg , 1010.8 hPa
Clouds: Clear
Visibility: 10 miles , 16 km
2018/04/26 22:56 KTTS 262256Z AUTO 15006KT 10SM CLR 24/18 A2985 RMK AO2 SLP112 T02430178 $
KVVG - The Villages, Florida, USA
Distance from station: WNW 40mi, 64km
Updated: Wed 02/14/18 2:10pm EST
NOT Current

 Wind from calm
Wind: Calm
Temperature: 73°F , 23°C
Dew Point: 66°F , 19°C
Humidity: 78%
Barometer: 30.29 inHg , 1025.7 hPa
Visibility: 10 miles , 16 km
2018/02/14 19:10 KVVG 141910Z AUTO 00000KT 10SM 23/19 A3029 RMK A01
 
KXMR - Cape Canaveral, Florida, USA
Distance from station: ESE 51mi, 83km
Updated: Thu 04/26/18 6:56pm EDT
Clear
Clear
 Wind from SSE
Wind: SSE 12 mph , 19 km/h
Temperature: 75°F , 24°C
Dew Point: 64°F , 18°C
Humidity: 69%
Barometer: 29.84 inHg , 1010.5 hPa
Clouds: Clear
Visibility: 10 miles , 16 km
2018/04/26 22:56 KXMR 262256Z AUTO 15010KT 10SM CLR 24/18 A2984 RMK AO2 SLP108 T02400179 FZRANO $
KGIF - Winter Haven, Florida, USA
Distance from station: SSW 55mi, 88km
Updated: Thu 04/26/18 6:53pm EDT
Mostly cloudy
Mostly cloudy
 Wind from W
Wind: W 10 mph , 17 km/h
Temperature: 79°F , 26°C
Dew Point: 61°F , 16°C
Humidity: 54%
Barometer: 29.89 inHg , 1012.2 hPa
Clouds: Mostly cloudy
Visibility: 10 miles , 16 km
Cloud details: Partly cloudy 5000 ft
Mostly cloudy 6000 ft
2018/04/26 22:53 KGIF 262253Z AUTO 27009KT 10SM SCT050 BKN060 26/16 A2989 RMK AO2 SLP120 T02610156
 
KCOF - Patrick Afb/Coco, Florida, USA
Distance from station: SE 58mi, 94km
Updated: Thu 04/26/18 6:56pm EDT
Clear
Clear
 Wind from SE
Wind: SE 14 mph , 22 km/h
Temperature: 77°F , 25°C
Dew Point: 64°F , 18°C
Humidity: 65%
Barometer: 29.85 inHg , 1010.8 hPa
Clouds: Clear
Visibility: 10 miles , 16 km
2018/04/26 22:56 KCOF 262256Z AUTO 14012KT 10SM CLR 25/18 A2985 RMK AO2 SLP112 T02450184 $
KINF - Inverness, Florida, USA
Distance from station: W 59mi, 95km
Updated: Thu 04/26/18 6:55pm EDT
Partly cloudy
Partly cloudy
 Wind from W
Wind: W 5 mph , 7 km/h
Temperature: 72°F , 22°C
Dew Point: 63°F , 17°C
Humidity: 73%
Barometer: 29.90 inHg , 1012.5 hPa
Clouds: Partly cloudy
Visibility: 10 miles , 16 km
Cloud details: Partly cloudy 3800 ft
2018/04/26 22:55 KINF 262255Z AUTO 26004KT 10SM SCT038 22/17 A2990 RMK AO2
 
KOCF - Ocala Muni, Florida, USA
Distance from station: WNW 60mi, 96km
Updated: Thu 04/26/18 6:51pm EDT
Few Clouds
Few Clouds
 Wind from WSW
Wind: WSW 10 mph , 17 km/h
Temperature: 73°F , 23°C
Dew Point: 59°F , 15°C
Humidity: 61%
Barometer: 29.89 inHg , 1012.2 hPa
Clouds: Few Clouds
Visibility: 10 miles , 16 km
Cloud details: Few Clouds 3900 ft
2018/04/26 22:51 KOCF 262251Z 24009KT 10SM FEW039 23/15 A2989 RMK AO2 SLP124 T02330150 $
KZPH - Zephyrhills, Florida, USA
Distance from station: SW 61mi, 99km
Updated: Thu 04/26/18 7:15pm EDT
Partly cloudy
Partly cloudy
 Wind from W
Wind: W 12 mph , 19 km/h
Temperature: 75°F , 24°C
Dew Point: 59°F , 15°C
Humidity: 57%
Barometer: 29.91 inHg , 1012.9 hPa
Clouds: Partly cloudy
Visibility: 10 miles , 16 km
Cloud details: Partly cloudy 3900 ft
2018/04/26 23:15 KZPH 262315Z AUTO 28010KT 10SM SCT039 24/15 A2991 RMK AO2 T02350153
 
KMLB - Melbourne, Florida, USA
Distance from station: SE 62mi, 100km
Updated: Thu 04/26/18 6:53pm EDT
Clear
Clear
 Wind from ESE
Wind: ESE 9 mph , 15 km/h
Temperature: 79°F , 26°C
Dew Point: 64°F , 18°C
Humidity: 61%
Barometer: 29.85 inHg , 1010.8 hPa
Clouds: Clear
Visibility: 10 miles , 16 km
2018/04/26 22:53 KMLB 262253Z 12008KT 10SM CLR 26/18 A2985 RMK AO2 SLP106 T02560178
KBOW - Bartow Municipal, Florida, USA
Distance from station: SSW 63mi, 102km
Updated: Thu 04/26/18 6:55pm EDT

 
2018/04/26 22:55 KBOW 262255Z AUTO RMK AO2 PNO PWINO TSNO